NIGHT FOLDER

Government of Pakistan
Cabinet Secretariat (Aviation Division)
Pakistan Meteorological Department
Meteorological Office
Allama Iqbal International Airport Lahore
(Aviation Met Services)
ISO 9001:2015 Certified


LOCAL TAFORS

DATED:26th January 2022


TAF OPLA 26,1545Z 2618/2724 VRB02KT 1500 BR NSC FM262100 00000KT 0800 FG NSC PROB40 TEMPO 2623/2704 00000KT 0400 FG VV/// BECMG 2705/2707 33006KT 1500 FU FM270900 31008KT 3000 FU NSC FM271800 VRB02KT 1500 BR NSC
TAF OPKC 26,1545Z 2618/2724 06007KT 4000 FU NSC TEMPO 2701/2705 04005KT 3000 FU NSC BECMG 2709/2711 25012KT 6000 NSC FM271800 28007KT 4000 FU NSC
TAF OPIS 26,1545Z 2618/2724 29010KT 5000 HZ NSC TEMPO 2623/2704 3000 BR FEW040 TEMPO 2706/2712 29008G18KT 6000 FEW040 TEMPO 2722/2724 3000 BR
TAF OPNH 26,1545Z 2618/2724 05004KT 2000 FU NSC TEMPO 2700/2705 00000KT 1000 BR SCT030 BECMG 2709/2711 14008KT 4000 HZ NSC FM271800 36005KT 2000 FU NSC
TAF OPPS 26,1545Z 2618/2724 13004KT 5000 HZ FEW040 TEMPO 2700/2702 3000 BR BECMG 2704/2708 23004KT 5000 HZ FEW040 FEW100 BECMG 2712/2715 13004KT 4000 FU NSC
TAF OPQT 26,1545Z 2618/2724 29015KT CAVOK TEMPO 2702/2704 13005KT 4000 HZ NSC
TAF OPST 26,1545Z 2618/2724 31004KT 4000 FU SCT100 FM 2618/2704 00000KT 0100 FG VV/// BECMG 2704/2706 VRB03KT 1200 BR FEW100
TAF OPSK 26,1545Z 2618/2718 VRB03KT 2000 FU NSC TEMPO 2700/2705 00000KT 1000 BR SCT030 BECMG 2706/2708 14007KT 4000 HZ NSC
TAF OPFA 26,1545Z 2618/2712 23003KT 4000 FU NSC TEMPO 2700/2703 00000KT 0600 FG BECMG 2708/2712 27003KT 4000 HZ NSC
TAF OPBW 26,1545Z 2618/2712 18005KT 1500 BR NSC PROB30 TEMPO 2701/2705 00000KT 0700 FG FEW120 FM270700 18005KT 4000 FU NSC
TAF OPMT 26,1545Z 2618/2712 18005KT 2000 BR NSC PROB30 TEMPO 2701/2705 00000KT 0800 FG FEW120 FM270700 18005KT 4000 FU FEW120
TAF OPRK 26,1545Z 2618/2712 23005KT 3000 BR NSC PROB30 TEMPO 2700/2704 00000KT 1500 BR FEW120 FM270700 18005KT 4000 FU NSC
Time of Issue: 26,2018

(MUHAMMAD IQBAL)
DUTY FORECASTING OFFICER


EAST ASIA TAFORS

TAF VABB 262000Z 2621/2706 04005KT 2000 HZ NSC BECMG 2701/2703 10006KT TEMPO 2700/2704 1500 BR HZ BECMG 2705/2706 04008KT 2500 FU HZ
TAF VIAR 262000Z 2621/2706 00000KT 0050 FG VV/// BECMG 2704/2706 0500 MIFG
TAF VILK 262000Z 2621/2706 27004KT 1500 BR SCT020 BKN100 BECMG 2622/2624 0700 FG BECMG 2700/2702 00000KT 0100 FG VV/// BECMG 2704/2706 29005KT 0800 MIFG SCT010 SCT020 BKN100
TAF VIDP 262000Z 2621/2706 00000KT 0100 FG NSC BECMG 2700/2702 23004KT 0400 FG BECMG 2704/2706 0800 MIFG
TAF VTBU 261700Z 2618/2718 35004KT 9000 FEW020 BECMG 2701/2703 18008KT BECMG 2713/2715 35004KT
TAF VTBS 261700Z 2618/2724 20005KT 9999 FEW020 BECMG 2622/2624 09005KT 3000 BR BECMG 2702/2704 28005KT 9999 NSW BECMG 2706/2708 20005KT
TAF VTBD 261700Z 2618/2724 19005KT 9999 FEW020 BECMG 2622/2624 09005KT 3000 BR BECMG 2702/2704 30005KT 9999 NSW BECMG 2706/2708 20005KT
TAF WSSS 261700Z 2618/2800 01010KT 9999 FEW015 SCT020
TAF WSAP 261700Z 2618/2800 01010KT 9999 FEW015 SCT020
TAF WMKK 261700Z 2618/2800 VRB02KT 9999 FEW020 PROB30 TEMPO 2708/2711 23006KT 5000 TSRA FEW017CB SCT030
TAF VHHH 261700Z 2618/2724 08010KT 9000 FEW020 SCT030 TX23/2706Z TN18/2623Z TN18/2723Z TEMPO 2618/2624 4000 BR -RA TEMPO 2704/2710 30010KT